Hims, Syria
Current Conditions -  °F | °C
As of 4:00 PM on Friday 19 Dec 2014 (Local Time) from OSLK Reporting Station
Thunderstorm Thunderstorm  
Wind Chill: 64°   Ceiling: 10000
Heat Index: 64°   Visibility: 4mi
Dew Point: 54°   Wind: 9mph
Humidity: 68%   Direction: 350°N
Pressure: 30.03"   Gusts: NA
Location:  34.73°N, 36.72°E
Report Text: OSLK 191300Z 35008KT 7000 TS SCT026 CB SCT030 BKN100 18/12 Q1017
Loading
Personal Weather Stations






























Interactive Weather Map New forecast layout! Learn more

10-Day Weather Forecast

Advertisements
Track Severe Weather on mobile